sensor_id;sensor_type;location;lat;lon;timestamp;pressure;altitude;pressure_sealevel;temperature;humidity
13027;BME280;6580;42.680;23.324;2023-05-06T00:00:12;95400.09;;;11.54;100.00
13027;BME280;6580;42.680;23.324;2023-05-06T00:02:57;95397.97;;;11.66;100.00
13027;BME280;6580;42.680;23.324;2023-05-06T00:05:44;95394.88;;;11.78;100.00
13027;BME280;6580;42.680;23.324;2023-05-06T00:08:33;95401.81;;;11.63;100.00
13027;BME280;6580;42.680;23.324;2023-05-06T00:11:19;95404.03;;;11.50;100.00
13027;BME280;6580;42.680;23.324;2023-05-06T00:14:05;95401.47;;;11.33;100.00
13027;BME280;6580;42.680;23.324;2023-05-06T00:16:51;95395.22;;;11.50;100.00
13027;BME280;6580;42.680;23.324;2023-05-06T00:19:37;95388.94;;;11.33;100.00
13027;BME280;6580;42.680;23.324;2023-05-06T00:22:24;95383.00;;;11.47;100.00
13027;BME280;6580;42.680;23.324;2023-05-06T00:25:11;95388.63;;;11.36;100.00
13027;BME280;6580;42.680;23.324;2023-05-06T00:27:56;95387.69;;;11.45;100.00
13027;BME280;6580;42.680;23.324;2023-05-06T00:30:42;95386.94;;;11.27;100.00
13027;BME280;6580;42.680;23.324;2023-05-06T00:33:28;95394.19;;;11.17;100.00
13027;BME280;6580;42.680;23.324;2023-05-06T00:36:14;95387.09;;;11.01;100.00
13027;BME280;6580;42.680;23.324;2023-05-06T00:39:01;95395.25;;;11.24;100.00
13027;BME280;6580;42.680;23.324;2023-05-06T00:41:46;95394.13;;;11.35;100.00
13027;BME280;6580;42.680;23.324;2023-05-06T00:44:35;95396.91;;;11.25;100.00
13027;BME280;6580;42.680;23.324;2023-05-06T00:47:22;95394.34;;;11.49;100.00
13027;BME280;6580;42.680;23.324;2023-05-06T00:50:09;95384.97;;;11.37;100.00
13027;BME280;6580;42.680;23.324;2023-05-06T00:52:56;95385.69;;;11.47;100.00
13027;BME280;6580;42.680;23.324;2023-05-06T00:55:45;95374.13;;;11.31;100.00
13027;BME280;6580;42.680;23.324;2023-05-06T00:58:30;95386.09;;;11.27;100.00
13027;BME280;6580;42.680;23.324;2023-05-06T01:01:16;95389.81;;;11.34;100.00
13027;BME280;6580;42.680;23.324;2023-05-06T01:04:03;95391.59;;;11.25;100.00
13027;BME280;6580;42.680;23.324;2023-05-06T01:06:57;95379.25;;;11.24;100.00
13027;BME280;6580;42.680;23.324;2023-05-06T01:09:51;95387.34;;;11.15;100.00
13027;BME280;6580;42.680;23.324;2023-05-06T01:12:45;95395.34;;;10.90;100.00
13027;BME280;6580;42.680;23.324;2023-05-06T01:15:35;95386.25;;;11.00;100.00
13027;BME280;6580;42.680;23.324;2023-05-06T01:18:24;95377.22;;;10.93;100.00
13027;BME280;6580;42.680;23.324;2023-05-06T01:21:12;95389.75;;;11.01;100.00
13027;BME280;6580;42.680;23.324;2023-05-06T01:24:01;95384.25;;;11.02;100.00
13027;BME280;6580;42.680;23.324;2023-05-06T01:26:46;95387.66;;;10.87;100.00
13027;BME280;6580;42.680;23.324;2023-05-06T01:29:34;95381.06;;;10.99;100.00
13027;BME280;6580;42.680;23.324;2023-05-06T01:32:35;95391.31;;;10.86;100.00
13027;BME280;6580;42.680;23.324;2023-05-06T01:35:31;95373.94;;;10.99;100.00
13027;BME280;6580;42.680;23.324;2023-05-06T01:38:26;95380.50;;;11.12;100.00
13027;BME280;6580;42.680;23.324;2023-05-06T01:41:17;95385.00;;;10.87;100.00
13027;BME280;6580;42.680;23.324;2023-05-06T01:44:05;95382.31;;;10.61;100.00
13027;BME280;6580;42.680;23.324;2023-05-06T01:46:54;95386.31;;;10.65;100.00
13027;BME280;6580;42.680;23.324;2023-05-06T01:49:41;95384.53;;;10.74;100.00
13027;BME280;6580;42.680;23.324;2023-05-06T01:52:29;95392.53;;;10.74;100.00
13027;BME280;6580;42.680;23.324;2023-05-06T01:55:15;95378.72;;;10.96;100.00
13027;BME280;6580;42.680;23.324;2023-05-06T01:58:02;95389.56;;;10.77;100.00
13027;BME280;6580;42.680;23.324;2023-05-06T02:00:49;95390.94;;;10.81;100.00
13027;BME280;6580;42.680;23.324;2023-05-06T02:03:35;95379.75;;;10.77;100.00
13027;BME280;6580;42.680;23.324;2023-05-06T02:06:23;95377.25;;;10.76;100.00
13027;BME280;6580;42.680;23.324;2023-05-06T02:09:09;95378.56;;;10.72;100.00
13027;BME280;6580;42.680;23.324;2023-05-06T02:11:57;95379.47;;;10.63;100.00
13027;BME280;6580;42.680;23.324;2023-05-06T02:14:47;95380.97;;;10.65;100.00
13027;BME280;6580;42.680;23.324;2023-05-06T02:17:37;95374.03;;;10.47;100.00
13027;BME280;6580;42.680;23.324;2023-05-06T02:20:23;95383.91;;;10.54;100.00
13027;BME280;6580;42.680;23.324;2023-05-06T02:23:08;95374.75;;;10.57;100.00
13027;BME280;6580;42.680;23.324;2023-05-06T02:25:53;95382.75;;;10.57;100.00
13027;BME280;6580;42.680;23.324;2023-05-06T02:28:41;95384.75;;;10.55;100.00
13027;BME280;6580;42.680;23.324;2023-05-06T02:31:29;95387.09;;;10.58;100.00
13027;BME280;6580;42.680;23.324;2023-05-06T02:34:16;95385.75;;;10.54;100.00
13027;BME280;6580;42.680;23.324;2023-05-06T02:37:02;95388.06;;;10.57;100.00
13027;BME280;6580;42.680;23.324;2023-05-06T02:39:48;95386.47;;;10.64;100.00
13027;BME280;6580;42.680;23.324;2023-05-06T02:42:33;95391.88;;;10.54;100.00
13027;BME280;6580;42.680;23.324;2023-05-06T02:45:19;95390.72;;;10.57;100.00
13027;BME280;6580;42.680;23.324;2023-05-06T02:48:06;95382.31;;;10.44;100.00
13027;BME280;6580;42.680;23.324;2023-05-06T02:50:52;95385.59;;;10.20;100.00
13027;BME280;6580;42.680;23.324;2023-05-06T02:53:39;95390.91;;;10.20;100.00
13027;BME280;6580;42.680;23.324;2023-05-06T02:56:25;95397.69;;;10.32;100.00
13027;BME280;6580;42.680;23.324;2023-05-06T02:59:10;95396.59;;;10.43;100.00
13027;BME280;6580;42.680;23.324;2023-05-06T03:01:57;95399.81;;;10.29;100.00
13027;BME280;6580;42.680;23.324;2023-05-06T03:04:44;95404.69;;;10.33;100.00
13027;BME280;6580;42.680;23.324;2023-05-06T03:07:30;95405.72;;;10.23;100.00
13027;BME280;6580;42.680;23.324;2023-05-06T03:10:17;95407.50;;;10.32;100.00
13027;BME280;6580;42.680;23.324;2023-05-06T03:13:04;95390.63;;;10.23;100.00
13027;BME280;6580;42.680;23.324;2023-05-06T03:15:52;95397.00;;;10.30;100.00
13027;BME280;6580;42.680;23.324;2023-05-06T03:18:39;95407.19;;;10.52;100.00
13027;BME280;6580;42.680;23.324;2023-05-06T03:21:27;95405.28;;;10.45;100.00
13027;BME280;6580;42.680;23.324;2023-05-06T03:24:13;95412.59;;;10.43;100.00
13027;BME280;6580;42.680;23.324;2023-05-06T03:26:59;95411.81;;;10.50;100.00
13027;BME280;6580;42.680;23.324;2023-05-06T03:29:50;95413.28;;;10.27;100.00
13027;BME280;6580;42.680;23.324;2023-05-06T03:32:36;95417.59;;;10.28;100.00
13027;BME280;6580;42.680;23.324;2023-05-06T03:35:23;95417.53;;;10.20;100.00
13027;BME280;6580;42.680;23.324;2023-05-06T03:38:12;95418.75;;;10.26;100.00
13027;BME280;6580;42.680;23.324;2023-05-06T03:41:01;95415.34;;;10.51;100.00
13027;BME280;6580;42.680;23.324;2023-05-06T03:43:50;95418.91;;;10.59;100.00
13027;BME280;6580;42.680;23.324;2023-05-06T03:46:35;95424.16;;;10.69;100.00
13027;BME280;6580;42.680;23.324;2023-05-06T03:49:22;95423.84;;;10.54;100.00
13027;BME280;6580;42.680;23.324;2023-05-06T03:52:08;95421.47;;;10.51;100.00
13027;BME280;6580;42.680;23.324;2023-05-06T03:54:55;95430.50;;;10.76;100.00
13027;BME280;6580;42.680;23.324;2023-05-06T03:57:40;95431.59;;;10.83;100.00
13027;BME280;6580;42.680;23.324;2023-05-06T04:00:26;95434.41;;;10.81;100.00
13027;BME280;6580;42.680;23.324;2023-05-06T04:03:11;95433.38;;;11.00;100.00
13027;BME280;6580;42.680;23.324;2023-05-06T04:05:58;95432.88;;;10.96;100.00
13027;BME280;6580;42.680;23.324;2023-05-06T04:08:44;95432.88;;;10.96;100.00
13027;BME280;6580;42.680;23.324;2023-05-06T04:11:31;95434.78;;;11.11;100.00
13027;BME280;6580;42.680;23.324;2023-05-06T04:14:16;95427.84;;;11.18;100.00
13027;BME280;6580;42.680;23.324;2023-05-06T04:17:02;95433.69;;;11.47;100.00
13027;BME280;6580;42.680;23.324;2023-05-06T04:19:48;95429.56;;;11.78;100.00
13027;BME280;6580;42.680;23.324;2023-05-06T04:22:36;95422.38;;;11.79;100.00
13027;BME280;6580;42.680;23.324;2023-05-06T04:25:22;95428.38;;;12.22;100.00
13027;BME280;6580;42.680;23.324;2023-05-06T04:28:12;95430.84;;;12.15;100.00
13027;BME280;6580;42.680;23.324;2023-05-06T04:30:57;95431.72;;;12.16;100.00
13027;BME280;6580;42.680;23.324;2023-05-06T04:33:43;95430.00;;;12.07;100.00
13027;BME280;6580;42.680;23.324;2023-05-06T04:36:28;95434.84;;;12.12;100.00
13027;BME280;6580;42.680;23.324;2023-05-06T04:39:14;95433.66;;;12.06;100.00
13027;BME280;6580;42.680;23.324;2023-05-06T04:42:02;95439.03;;;12.22;100.00
13027;BME280;6580;42.680;23.324;2023-05-06T04:44:50;95436.63;;;12.44;100.00
13027;BME280;6580;42.680;23.324;2023-05-06T04:47:36;95431.63;;;12.57;100.00
13027;BME280;6580;42.680;23.324;2023-05-06T04:50:22;95453.88;;;12.74;100.00
13027;BME280;6580;42.680;23.324;2023-05-06T04:53:08;95454.53;;;12.84;100.00
13027;BME280;6580;42.680;23.324;2023-05-06T04:55:54;95449.41;;;12.98;100.00
13027;BME280;6580;42.680;23.324;2023-05-06T04:58:39;95447.03;;;13.35;100.00
13027;BME280;6580;42.680;23.324;2023-05-06T05:01:26;95449.53;;;13.44;100.00
13027;BME280;6580;42.680;23.324;2023-05-06T05:04:13;95452.53;;;13.49;100.00
13027;BME280;6580;42.680;23.324;2023-05-06T05:06:59;95458.88;;;13.56;100.00
13027;BME280;6580;42.680;23.324;2023-05-06T05:09:46;95450.63;;;14.28;100.00
13027;BME280;6580;42.680;23.324;2023-05-06T05:12:32;95454.56;;;14.93;96.58
13027;BME280;6580;42.680;23.324;2023-05-06T05:15:19;95445.06;;;16.15;87.83
13027;BME280;6580;42.680;23.324;2023-05-06T05:18:09;95450.06;;;16.47;80.88
13027;BME280;6580;42.680;23.324;2023-05-06T05:20:55;95453.84;;;15.95;84.04
13027;BME280;6580;42.680;23.324;2023-05-06T05:23:41;95443.53;;;15.55;84.45
13027;BME280;6580;42.680;23.324;2023-05-06T05:26:27;95449.13;;;15.31;87.02
13027;BME280;6580;42.680;23.324;2023-05-06T05:29:12;95461.28;;;15.56;83.29
13027;BME280;6580;42.680;23.324;2023-05-06T05:31:58;95450.97;;;15.30;85.20
13027;BME280;6580;42.680;23.324;2023-05-06T05:34:47;95448.56;;;15.13;85.87
13027;BME280;6580;42.680;23.324;2023-05-06T05:37:36;95451.38;;;14.97;85.11
13027;BME280;6580;42.680;23.324;2023-05-06T05:40:25;95455.84;;;15.05;86.26
13027;BME280;6580;42.680;23.324;2023-05-06T05:43:13;95456.88;;;15.04;85.17
13027;BME280;6580;42.680;23.324;2023-05-06T05:45:59;95459.00;;;14.86;86.45
13027;BME280;6580;42.680;23.324;2023-05-06T05:48:45;95455.47;;;14.85;87.45
13027;BME280;6580;42.680;23.324;2023-05-06T05:51:32;95456.31;;;14.86;87.05
13027;BME280;6580;42.680;23.324;2023-05-06T05:54:17;95459.91;;;14.78;87.82
13027;BME280;6580;42.680;23.324;2023-05-06T05:57:03;95460.94;;;14.69;88.22
13027;BME280;6580;42.680;23.324;2023-05-06T05:59:49;95460.69;;;14.56;88.87
13027;BME280;6580;42.680;23.324;2023-05-06T06:02:35;95461.00;;;14.61;88.56
13027;BME280;6580;42.680;23.324;2023-05-06T06:05:20;95466.53;;;14.60;88.20
13027;BME280;6580;42.680;23.324;2023-05-06T06:08:07;95469.00;;;14.69;87.76
13027;BME280;6580;42.680;23.324;2023-05-06T06:10:52;95473.84;;;14.74;88.22
13027;BME280;6580;42.680;23.324;2023-05-06T06:13:39;95472.84;;;14.97;86.61
13027;BME280;6580;42.680;23.324;2023-05-06T06:16:25;95467.06;;;14.86;86.71
13027;BME280;6580;42.680;23.324;2023-05-06T06:19:12;95482.00;;;15.03;87.08
13027;BME280;6580;42.680;23.324;2023-05-06T06:21:59;95472.72;;;14.91;88.07
13027;BME280;6580;42.680;23.324;2023-05-06T06:24:49;95469.66;;;14.94;88.70
13027;BME280;6580;42.680;23.324;2023-05-06T06:27:37;95472.19;;;15.18;87.78
13027;BME280;6580;42.680;23.324;2023-05-06T06:30:22;95464.13;;;15.18;87.80
13027;BME280;6580;42.680;23.324;2023-05-06T06:33:08;95467.59;;;15.26;87.81
13027;BME280;6580;42.680;23.324;2023-05-06T06:35:56;95460.31;;;15.34;87.45
13027;BME280;6580;42.680;23.324;2023-05-06T06:38:43;95467.06;;;15.30;86.60
13027;BME280;6580;42.680;23.324;2023-05-06T06:41:30;95469.22;;;15.35;87.04
13027;BME280;6580;42.680;23.324;2023-05-06T06:44:15;95465.03;;;15.10;88.19
13027;BME280;6580;42.680;23.324;2023-05-06T06:47:01;95476.41;;;14.90;90.30
13027;BME280;6580;42.680;23.324;2023-05-06T06:49:47;95480.09;;;15.11;90.57
13027;BME280;6580;42.680;23.324;2023-05-06T06:52:32;95482.34;;;15.30;88.35
13027;BME280;6580;42.680;23.324;2023-05-06T06:55:18;95477.16;;;15.28;86.78
13027;BME280;6580;42.680;23.324;2023-05-06T06:58:05;95478.88;;;14.99;88.24
13027;BME280;6580;42.680;23.324;2023-05-06T07:00:50;95476.84;;;15.23;87.56
13027;BME280;6580;42.680;23.324;2023-05-06T07:03:36;95490.25;;;15.23;86.77
13027;BME280;6580;42.680;23.324;2023-05-06T07:06:22;95485.00;;;15.52;86.45
13027;BME280;6580;42.680;23.324;2023-05-06T07:09:07;95481.59;;;15.58;85.93
13027;BME280;6580;42.680;23.324;2023-05-06T07:11:52;95484.66;;;15.84;82.51
13027;BME280;6580;42.680;23.324;2023-05-06T07:14:39;95477.75;;;16.04;82.34
13027;BME280;6580;42.680;23.324;2023-05-06T07:17:25;95477.13;;;16.45;80.01
13027;BME280;6580;42.680;23.324;2023-05-06T07:20:13;95483.38;;;16.81;77.37
13027;BME280;6580;42.680;23.324;2023-05-06T07:22:59;95489.41;;;17.04;76.62
13027;BME280;6580;42.680;23.324;2023-05-06T07:25:45;95483.91;;;17.12;74.86
13027;BME280;6580;42.680;23.324;2023-05-06T07:28:31;95488.63;;;16.89;75.50
13027;BME280;6580;42.680;23.324;2023-05-06T07:31:20;95493.84;;;17.12;75.38
13027;BME280;6580;42.680;23.324;2023-05-06T07:34:06;95495.44;;;17.41;74.52
13027;BME280;6580;42.680;23.324;2023-05-06T07:36:53;95480.81;;;18.05;71.48
13027;BME280;6580;42.680;23.324;2023-05-06T07:39:40;95479.81;;;18.40;68.72
13027;BME280;6580;42.680;23.324;2023-05-06T07:42:26;95470.53;;;19.02;66.08
13027;BME280;6580;42.680;23.324;2023-05-06T07:45:11;95472.78;;;19.52;63.93
13027;BME280;6580;42.680;23.324;2023-05-06T07:48:01;95471.75;;;20.18;60.22
13027;BME280;6580;42.680;23.324;2023-05-06T07:50:46;95471.34;;;20.14;58.09
13027;BME280;6580;42.680;23.324;2023-05-06T07:53:32;95467.69;;;20.72;55.42
13027;BME280;6580;42.680;23.324;2023-05-06T07:56:17;95459.31;;;21.61;52.98
13027;BME280;6580;42.680;23.324;2023-05-06T07:59:03;95467.28;;;21.49;53.23
13027;BME280;6580;42.680;23.324;2023-05-06T08:01:48;95465.25;;;21.45;52.97
13027;BME280;6580;42.680;23.324;2023-05-06T08:04:35;95457.19;;;22.18;50.64
13027;BME280;6580;42.680;23.324;2023-05-06T08:07:21;95468.50;;;21.60;50.97
13027;BME280;6580;42.680;23.324;2023-05-06T08:10:07;95460.00;;;21.13;52.70
13027;BME280;6580;42.680;23.324;2023-05-06T08:12:53;95466.16;;;21.33;51.99
13027;BME280;6580;42.680;23.324;2023-05-06T08:15:38;95467.81;;;21.71;50.78
13027;BME280;6580;42.680;23.324;2023-05-06T08:18:24;95454.78;;;21.48;51.58
13027;BME280;6580;42.680;23.324;2023-05-06T08:21:12;95467.13;;;22.49;47.88
13027;BME280;6580;42.680;23.324;2023-05-06T08:23:58;95464.81;;;23.24;46.81
13027;BME280;6580;42.680;23.324;2023-05-06T08:26:43;95456.06;;;25.18;42.47
13027;BME280;6580;42.680;23.324;2023-05-06T08:29:29;95460.84;;;24.42;42.38
13027;BME280;6580;42.680;23.324;2023-05-06T08:32:15;95465.72;;;23.76;43.32
13027;BME280;6580;42.680;23.324;2023-05-06T08:35:01;95449.63;;;24.62;42.69
13027;BME280;6580;42.680;23.324;2023-05-06T08:37:50;95462.41;;;24.50;41.09
13027;BME280;6580;42.680;23.324;2023-05-06T08:40:40;95457.06;;;24.43;41.04
13027;BME280;6580;42.680;23.324;2023-05-06T08:43:27;95460.38;;;23.11;44.04
13027;BME280;6580;42.680;23.324;2023-05-06T08:46:18;95467.28;;;23.55;43.21
13027;BME280;6580;42.680;23.324;2023-05-06T08:49:04;95452.56;;;25.89;39.70
13027;BME280;6580;42.680;23.324;2023-05-06T08:51:50;95453.31;;;25.29;39.91
13027;BME280;6580;42.680;23.324;2023-05-06T08:54:40;95454.72;;;25.60;37.94
13027;BME280;6580;42.680;23.324;2023-05-06T08:57:30;95448.69;;;25.58;37.89
13027;BME280;6580;42.680;23.324;2023-05-06T09:00:16;95438.94;;;26.22;36.69
13027;BME280;6580;42.680;23.324;2023-05-06T09:03:01;95454.03;;;25.53;37.31
13027;BME280;6580;42.680;23.324;2023-05-06T09:05:47;95441.75;;;26.27;36.61
13027;BME280;6580;42.680;23.324;2023-05-06T09:08:33;95439.91;;;27.03;35.42
13027;BME280;6580;42.680;23.324;2023-05-06T09:11:25;95425.03;;;26.07;36.38
13027;BME280;6580;42.680;23.324;2023-05-06T09:14:13;95427.34;;;25.82;36.90
13027;BME280;6580;42.680;23.324;2023-05-06T09:16:59;95421.59;;;23.34;41.19
13027;BME280;6580;42.680;23.324;2023-05-06T09:19:46;95424.25;;;24.72;39.54
13027;BME280;6580;42.680;23.324;2023-05-06T09:22:32;95415.75;;;26.41;37.15
13027;BME280;6580;42.680;23.324;2023-05-06T09:25:18;95411.63;;;25.06;38.79
13027;BME280;6580;42.680;23.324;2023-05-06T09:28:05;95408.09;;;24.94;38.95
13027;BME280;6580;42.680;23.324;2023-05-06T09:30:51;95414.41;;;24.83;38.96
13027;BME280;6580;42.680;23.324;2023-05-06T09:33:37;95411.25;;;24.06;39.98
13027;BME280;6580;42.680;23.324;2023-05-06T09:36:23;95415.53;;;24.48;39.42
13027;BME280;6580;42.680;23.324;2023-05-06T09:39:10;95404.84;;;24.80;39.18
13027;BME280;6580;42.680;23.324;2023-05-06T09:41:56;95404.97;;;25.25;37.44
13027;BME280;6580;42.680;23.324;2023-05-06T09:44:43;95397.41;;;27.12;34.44
13027;BME280;6580;42.680;23.324;2023-05-06T09:47:32;95397.69;;;25.74;36.59
13027;BME280;6580;42.680;23.324;2023-05-06T09:50:20;95395.16;;;24.27;39.31
13027;BME280;6580;42.680;23.324;2023-05-06T09:53:09;95392.31;;;24.45;38.67
13027;BME280;6580;42.680;23.324;2023-05-06T09:55:56;95384.31;;;24.78;38.80
13027;BME280;6580;42.680;23.324;2023-05-06T09:58:44;95385.22;;;26.82;34.96
13027;BME280;6580;42.680;23.324;2023-05-06T10:01:33;95382.50;;;24.56;38.06
13027;BME280;6580;42.680;23.324;2023-05-06T10:04:20;95395.38;;;24.60;38.97
13027;BME280;6580;42.680;23.324;2023-05-06T10:07:08;95379.06;;;24.14;39.52
13027;BME280;6580;42.680;23.324;2023-05-06T10:09:57;95397.16;;;23.45;39.72
13027;BME280;6580;42.680;23.324;2023-05-06T10:12:46;95394.50;;;22.62;41.45
13027;BME280;6580;42.680;23.324;2023-05-06T10:15:33;95396.16;;;22.63;42.10
13027;BME280;6580;42.680;23.324;2023-05-06T10:18:25;95400.19;;;21.76;44.02
13027;BME280;6580;42.680;23.324;2023-05-06T10:21:18;95389.53;;;21.50;44.54
13027;BME280;6580;42.680;23.324;2023-05-06T10:24:09;95398.25;;;21.28;45.47
13027;BME280;6580;42.680;23.324;2023-05-06T10:26:55;95400.78;;;21.23;46.52
13027;BME280;6580;42.680;23.324;2023-05-06T10:29:41;95401.13;;;21.33;47.20
13027;BME280;6580;42.680;23.324;2023-05-06T10:32:30;95388.63;;;21.87;45.36
13027;BME280;6580;42.680;23.324;2023-05-06T10:35:23;95391.44;;;22.58;43.93
13027;BME280;6580;42.680;23.324;2023-05-06T10:38:15;95387.25;;;22.92;43.26
13027;BME280;6580;42.680;23.324;2023-05-06T10:41:03;95385.00;;;22.89;42.25
13027;BME280;6580;42.680;23.324;2023-05-06T10:43:49;95383.97;;;21.69;45.10
13027;BME280;6580;42.680;23.324;2023-05-06T10:46:58;95367.34;;;24.14;41.37
13027;BME280;6580;42.680;23.324;2023-05-06T10:50:20;95369.72;;;24.33;38.59
13027;BME280;6580;42.680;23.324;2023-05-06T10:53:07;95368.44;;;24.75;38.01
13027;BME280;6580;42.680;23.324;2023-05-06T10:56:05;95372.69;;;24.20;39.10
13027;BME280;6580;42.680;23.324;2023-05-06T10:58:53;95358.94;;;24.04;39.50
13027;BME280;6580;42.680;23.324;2023-05-06T11:01:39;95368.00;;;23.63;39.10
13027;BME280;6580;42.680;23.324;2023-05-06T11:04:27;95369.47;;;24.58;36.22
13027;BME280;6580;42.680;23.324;2023-05-06T11:07:22;95365.66;;;24.36;36.27
13027;BME280;6580;42.680;23.324;2023-05-06T11:10:10;95365.78;;;25.31;33.68
13027;BME280;6580;42.680;23.324;2023-05-06T11:12:55;95362.34;;;24.96;33.12
13027;BME280;6580;42.680;23.324;2023-05-06T11:15:43;95362.34;;;24.45;34.46
13027;BME280;6580;42.680;23.324;2023-05-06T11:18:43;95360.34;;;23.95;35.38
13027;BME280;6580;42.680;23.324;2023-05-06T11:21:38;95365.41;;;24.60;34.72
13027;BME280;6580;42.680;23.324;2023-05-06T11:24:41;95356.53;;;25.04;33.56
13027;BME280;6580;42.680;23.324;2023-05-06T11:27:28;95360.06;;;25.60;32.59
13027;BME280;6580;42.680;23.324;2023-05-06T11:30:16;95357.09;;;24.78;34.00
13027;BME280;6580;42.680;23.324;2023-05-06T11:33:05;95351.22;;;24.97;33.87
13027;BME280;6580;42.680;23.324;2023-05-06T11:35:53;95360.47;;;24.46;33.75
13027;BME280;6580;42.680;23.324;2023-05-06T11:38:40;95370.31;;;23.89;35.29
13027;BME280;6580;42.680;23.324;2023-05-06T11:41:28;95361.19;;;23.32;36.33
13027;BME280;6580;42.680;23.324;2023-05-06T11:44:25;95380.31;;;22.60;37.78
13027;BME280;6580;42.680;23.324;2023-05-06T11:47:10;95369.59;;;22.11;38.12
13027;BME280;6580;42.680;23.324;2023-05-06T11:49:56;95368.69;;;22.17;38.56
13027;BME280;6580;42.680;23.324;2023-05-06T11:52:43;95376.09;;;22.64;36.90
13027;BME280;6580;42.680;23.324;2023-05-06T11:55:29;95359.88;;;23.98;34.74
13027;BME280;6580;42.680;23.324;2023-05-06T11:58:17;95347.44;;;23.56;35.36
13027;BME280;6580;42.680;23.324;2023-05-06T12:01:04;95367.22;;;23.34;35.24
13027;BME280;6580;42.680;23.324;2023-05-06T12:03:53;95359.06;;;23.97;35.24
13027;BME280;6580;42.680;23.324;2023-05-06T12:06:38;95349.50;;;24.80;33.97
13027;BME280;6580;42.680;23.324;2023-05-06T12:09:24;95357.59;;;25.03;33.81
13027;BME280;6580;42.680;23.324;2023-05-06T12:12:20;95340.97;;;23.80;35.44
13027;BME280;6580;42.680;23.324;2023-05-06T12:15:11;95341.22;;;24.01;35.02
13027;BME280;6580;42.680;23.324;2023-05-06T12:17:57;95345.69;;;24.07;34.52
13027;BME280;6580;42.680;23.324;2023-05-06T12:20:43;95344.81;;;24.41;34.46
13027;BME280;6580;42.680;23.324;2023-05-06T12:23:29;95339.53;;;24.23;34.47
13027;BME280;6580;42.680;23.324;2023-05-06T12:26:43;95342.81;;;24.60;33.66
13027;BME280;6580;42.680;23.324;2023-05-06T12:29:31;95325.75;;;25.64;31.91
13027;BME280;6580;42.680;23.324;2023-05-06T12:32:18;95324.59;;;25.60;32.28
13027;BME280;6580;42.680;23.324;2023-05-06T12:35:04;95328.25;;;25.98;32.74
13027;BME280;6580;42.680;23.324;2023-05-06T12:37:52;95326.63;;;24.53;35.99
13027;BME280;6580;42.680;23.324;2023-05-06T12:40:40;95329.66;;;23.42;38.48
13027;BME280;6580;42.680;23.324;2023-05-06T12:43:29;95333.81;;;23.56;38.50
13027;BME280;6580;42.680;23.324;2023-05-06T12:46:16;95336.59;;;22.97;38.72
13027;BME280;6580;42.680;23.324;2023-05-06T12:49:03;95329.69;;;22.36;39.67
13027;BME280;6580;42.680;23.324;2023-05-06T12:52:05;95330.28;;;21.78;40.99
13027;BME280;6580;42.680;23.324;2023-05-06T12:54:51;95339.91;;;21.49;41.49
13027;BME280;6580;42.680;23.324;2023-05-06T12:57:36;95340.53;;;21.94;40.47
13027;BME280;6580;42.680;23.324;2023-05-06T13:00:22;95335.94;;;21.76;40.74
13027;BME280;6580;42.680;23.324;2023-05-06T13:03:08;95331.44;;;22.06;40.37
13027;BME280;6580;42.680;23.324;2023-05-06T13:05:58;95330.41;;;22.25;39.98
13027;BME280;6580;42.680;23.324;2023-05-06T13:08:45;95326.97;;;22.54;39.35
13027;BME280;6580;42.680;23.324;2023-05-06T13:11:34;95309.84;;;22.83;38.94
13027;BME280;6580;42.680;23.324;2023-05-06T13:14:20;95323.47;;;22.47;39.82
13027;BME280;6580;42.680;23.324;2023-05-06T13:17:10;95322.41;;;22.12;40.49
13027;BME280;6580;42.680;23.324;2023-05-06T13:19:57;95331.00;;;21.91;41.22
13027;BME280;6580;42.680;23.324;2023-05-06T13:22:44;95319.19;;;21.61;41.51
13027;BME280;6580;42.680;23.324;2023-05-06T13:25:31;95325.91;;;21.52;42.29
13027;BME280;6580;42.680;23.324;2023-05-06T13:28:17;95324.75;;;21.42;42.14
13027;BME280;6580;42.680;23.324;2023-05-06T13:31:03;95328.84;;;21.51;42.39
13027;BME280;6580;42.680;23.324;2023-05-06T13:33:51;95326.91;;;21.34;42.52
13027;BME280;6580;42.680;23.324;2023-05-06T13:36:39;95324.06;;;21.22;42.71
13027;BME280;6580;42.680;23.324;2023-05-06T13:39:29;95323.94;;;21.42;43.06
13027;BME280;6580;42.680;23.324;2023-05-06T13:42:15;95319.69;;;21.94;42.12
13027;BME280;6580;42.680;23.324;2023-05-06T13:45:07;95325.56;;;22.09;41.09
13027;BME280;6580;42.680;23.324;2023-05-06T13:47:53;95317.28;;;22.22;41.21
13027;BME280;6580;42.680;23.324;2023-05-06T13:50:40;95317.44;;;22.27;40.84
13027;BME280;6580;42.680;23.324;2023-05-06T13:53:26;95322.69;;;22.22;40.98
13027;BME280;6580;42.680;23.324;2023-05-06T13:56:19;95323.25;;;21.70;42.20
13027;BME280;6580;42.680;23.324;2023-05-06T13:59:13;95317.28;;;22.04;42.08
13027;BME280;6580;42.680;23.324;2023-05-06T14:02:03;95319.25;;;21.97;42.81
13027;BME280;6580;42.680;23.324;2023-05-06T14:04:50;95315.41;;;21.87;42.48
13027;BME280;6580;42.680;23.324;2023-05-06T14:07:35;95296.94;;;21.95;43.07
13027;BME280;6580;42.680;23.324;2023-05-06T14:10:21;95309.00;;;22.17;41.98
13027;BME280;6580;42.680;23.324;2023-05-06T14:13:08;95315.06;;;22.37;40.68
13027;BME280;6580;42.680;23.324;2023-05-06T14:15:54;95323.31;;;22.06;39.80
13027;BME280;6580;42.680;23.324;2023-05-06T14:18:39;95317.38;;;22.34;39.71
13027;BME280;6580;42.680;23.324;2023-05-06T14:21:25;95317.22;;;22.11;38.60
13027;BME280;6580;42.680;23.324;2023-05-06T14:24:10;95319.72;;;21.46;39.48
13027;BME280;6580;42.680;23.324;2023-05-06T14:26:55;95315.13;;;20.97;40.48
13027;BME280;6580;42.680;23.324;2023-05-06T14:29:42;95319.63;;;21.10;40.45
13027;BME280;6580;42.680;23.324;2023-05-06T14:32:28;95326.22;;;21.14;40.81
13027;BME280;6580;42.680;23.324;2023-05-06T14:35:14;95318.22;;;21.25;40.34
13027;BME280;6580;42.680;23.324;2023-05-06T14:38:00;95324.69;;;21.48;39.60
13027;BME280;6580;42.680;23.324;2023-05-06T14:40:45;95315.44;;;21.62;38.84
13027;BME280;6580;42.680;23.324;2023-05-06T14:43:32;95314.94;;;21.90;38.93